Time;durP1;ratioP1;P1;durP2;ratioP2;P2;SDS_P1;SDS_P2;PMS_P1;PMS_P2;Temp;Humidity;BMP_temperature;BMP_pressure;BME280_temperature;BME280_humidity;BME280_pressure;Samples;Min_cycle;Max_cycle;Signal;HPM_P1;HPM_P2
2021/03/15 00:01:27;;;;;;;;;;;;;;;6.54;66.17;95674.19;1763111;80;23453;-54
2021/03/15 00:03:55;;;;;;;;;;;;;;;6.53;66.08;95674.29;1764140;80;20242;-53
2021/03/15 00:06:23;;;;;;;;;;;;;;;6.49;66.21;95672.88;1763954;80;20286;-53
2021/03/15 00:08:51;;;;;;;;;;;;;;;6.46;66.31;95676.47;1768635;80;20285;-54
2021/03/15 00:11:19;;;;;;;;;;;;;;;6.40;66.48;95676.44;1762815;80;20802;-55
2021/03/15 00:13:48;;;;;;;;;;;;;;;6.38;66.31;95682.17;1763252;80;20222;-54
2021/03/15 00:16:17;;;;;;;;;;;;;;;6.35;66.07;95679.80;1760726;80;20230;-55
2021/03/15 00:18:47;;;;;;;;;;;;;;;6.31;66.09;95682.20;1755720;80;20510;-54
2021/03/15 00:21:15;;;;;;;;;;;;;;;6.26;66.17;95681.23;1756203;81;20293;-53
2021/03/15 00:23:42;;;;;;;;;;;;;;;6.23;66.53;95684.04;1762256;80;20234;-54
2021/03/15 00:26:09;;;;;;;;;;;;;;;6.25;66.76;95686.52;1763333;80;21178;-54
2021/03/15 00:28:40;;;;;;;;;;;;;;;6.27;66.67;95685.94;1767439;80;20270;-55
2021/03/15 00:31:09;;;;;;;;;;;;;;;6.30;66.65;95679.29;1761909;80;20227;-55
2021/03/15 00:33:37;;;;;;;;;;;;;;;6.31;66.29;95682.20;1763642;80;20218;-55
2021/03/15 00:36:07;;;;;;;;;;;;;;;6.32;66.49;95685.63;1759821;80;20235;-54
2021/03/15 00:38:35;;;;;;;;;;;;;;;6.35;66.37;95677.66;1758143;80;21478;-54
2021/03/15 00:41:02;;;;;;;;;;;;;;;6.36;66.55;95682.72;1763722;80;20589;-55
2021/03/15 00:43:29;;;;;;;;;;;;;;;6.37;66.33;95688.23;1757822;80;20494;-54
2021/03/15 00:45:57;;;;;;;;;;;;;;;6.39;66.30;95692.81;1763208;80;20815;-54
2021/03/15 00:48:24;;;;;;;;;;;;;;;6.41;66.35;95679.39;1757435;80;20505;-54
2021/03/15 00:50:52;;;;;;;;;;;;;;;6.40;66.34;95682.88;1770454;80;21115;-54
2021/03/15 00:53:21;;;;;;;;;;;;;;;6.36;66.63;95677.56;1770465;80;20298;-54
2021/03/15 00:55:48;;;;;;;;;;;;;;;6.34;66.89;95674.27;1770768;79;20225;-53
2021/03/15 00:58:15;;;;;;;;;;;;;;;6.36;67.13;95678.03;1772834;80;20214;-55
2021/03/15 01:00:45;;;;;;;;;;;;;;;6.37;67.03;95669.39;1772153;80;20486;-55
2021/03/15 01:03:14;;;;;;;;;;;;;;;6.33;67.31;95664.07;1768744;80;21428;-55
2021/03/15 01:05:45;;;;;;;;;;;;;;;6.34;67.31;95667.02;1767267;80;20224;-54
2021/03/15 01:08:20;;;;;;;;;;;;;;;6.34;67.08;95663.97;1737520;80;20504;-54
2021/03/15 01:10:49;;;;;;;;;;;;;;;6.31;67.25;95664.17;1764966;80;20441;-55
2021/03/15 01:13:17;;;;;;;;;;;;;;;6.24;67.22;95662.48;1737012;81;20321;-56
2021/03/15 01:15:46;;;;;;;;;;;;;;;6.26;67.28;95661.91;1737970;81;22156;-55
2021/03/15 01:18:13;;;;;;;;;;;;;;;6.33;67.18;95661.05;1725268;82;20620;-53
2021/03/15 01:20:43;;;;;;;;;;;;;;;6.37;67.21;95659.08;1725577;82;20365;-53
2021/03/15 01:23:10;;;;;;;;;;;;;;;6.43;67.33;95662.50;1761562;80;20214;-55
2021/03/15 01:25:39;;;;;;;;;;;;;;;6.52;67.49;95666.22;1757089;80;20238;-55
2021/03/15 01:28:07;;;;;;;;;;;;;;;6.55;67.49;95664.25;1764867;80;21896;-54
2021/03/15 01:30:35;;;;;;;;;;;;;;;6.57;67.47;95660.28;1766960;80;20207;-55
2021/03/15 01:33:04;;;;;;;;;;;;;;;6.58;67.44;95665.80;1761881;80;20219;-54
2021/03/15 01:35:31;;;;;;;;;;;;;;;6.56;67.48;95663.78;1758650;80;20292;-54
2021/03/15 01:38:00;;;;;;;;;;;;;;;6.55;67.51;95664.25;1764723;80;20218;-54
2021/03/15 01:40:28;;;;;;;;;;;;;;;6.54;67.44;95656.63;1760750;80;21211;-53
2021/03/15 01:42:55;;;;;;;;;;;;;;;6.52;67.34;95659.78;1765158;80;20234;-53
2021/03/15 01:45:22;;;;;;;;;;;;;;;6.49;67.10;95666.43;1766265;80;20278;-54
2021/03/15 01:47:50;;;;;;;;;;;;;;;6.37;67.47;95660.38;1761348;80;20215;-53
2021/03/15 01:50:18;;;;;;;;;;;;;;;6.36;67.63;95662.58;1762277;81;20213;-53
2021/03/15 01:52:45;;;;;;;;;;;;;;;6.32;67.74;95662.44;1767025;80;21198;-54
2021/03/15 01:55:13;;;;;;;;;;;;;;;6.34;67.56;95671.70;1762667;80;22002;-53
2021/03/15 01:57:40;;;;;;;;;;;;;;;6.37;67.25;95666.34;1757196;80;20220;-54
2021/03/15 02:00:10;;;;;;;;;;;;;;;6.40;66.80;95657.59;1764134;80;20223;-53
2021/03/15 02:02:47;;;;;;;;;;;;;;;6.36;66.57;95663.86;1763188;80;37985;-54
2021/03/15 02:05:15;;;;;;;;;;;;;;;6.33;66.39;95661.49;1763428;80;21268;-54
2021/03/15 02:07:43;;;;;;;;;;;;;;;6.32;66.63;95660.68;1763927;80;20223;-53
2021/03/15 02:10:11;;;;;;;;;;;;;;;6.32;66.58;95655.53;1764981;80;20210;-54
2021/03/15 02:12:48;;;;;;;;;;;;;;;6.30;66.24;95654.81;1764003;80;20289;-53
2021/03/15 02:15:19;;;;;;;;;;;;;;;6.29;66.19;95654.92;1762635;80;20242;-55
2021/03/15 02:18:19;;;;;;;;;;;;;;;6.25;65.88;95654.31;1764358;80;21415;-54
2021/03/15 02:21:06;;;;;;;;;;;;;;;6.19;66.02;95658.58;1760824;80;20213;-53
2021/03/15 02:23:37;;;;;;;;;;;;;;;6.15;66.04;95656.69;1766330;80;20493;-54
2021/03/15 02:26:23;;;;;;;;;;;;;;;6.07;66.83;95670.07;1762574;81;20210;-54
2021/03/15 02:29:22;;;;;;;;;;;;;;;6.08;67.17;95661.43;1761454;80;20285;-54
2021/03/15 02:32:19;;;;;;;;;;;;;;;6.14;67.08;95664.05;1762440;80;21203;-55
2021/03/15 02:35:01;;;;;;;;;;;;;;;6.18;67.25;95668.05;1763832;80;20490;-54
2021/03/15 02:37:39;;;;;;;;;;;;;;;6.22;67.10;95668.69;1760417;80;20254;-54
2021/03/15 02:40:09;;;;;;;;;;;;;;;6.26;67.29;95667.53;1760013;80;20218;-54
2021/03/15 02:42:37;;;;;;;;;;;;;;;6.24;67.47;95665.53;1756674;80;20231;-55
2021/03/15 02:45:05;;;;;;;;;;;;;;;6.27;67.53;95671.77;1765398;80;21078;-55
2021/03/15 02:47:32;;;;;;;;;;;;;;;6.29;67.41;95670.38;1763470;80;20710;-54
2021/03/15 02:50:02;;;;;;;;;;;;;;;6.26;67.34;95660.62;1762858;81;20218;-54
2021/03/15 02:52:30;;;;;;;;;;;;;;;6.24;67.43;95665.53;1738080;80;20659;-53
2021/03/15 02:54:59;;;;;;;;;;;;;;;6.22;67.44;95664.34;1744115;81;20238;-55
2021/03/15 02:57:27;;;;;;;;;;;;;;;6.22;67.42;95665.63;1765819;80;21207;-55
2021/03/15 02:59:54;;;;;;;;;;;;;;;6.21;67.50;95665.27;1757890;80;20219;-54
2021/03/15 03:02:22;;;;;;;;;;;;;;;6.22;67.49;95663.53;1762749;81;20289;-54
2021/03/15 03:04:50;;;;;;;;;;;;;;;6.24;67.43;95662.95;1765229;80;20322;-54
2021/03/15 03:07:19;;;;;;;;;;;;;;;6.24;67.13;95665.53;1764096;80;20230;-53
2021/03/15 03:09:46;;;;;;;;;;;;;;;6.21;66.94;95663.16;1764834;80;22115;-53
2021/03/15 03:12:13;;;;;;;;;;;;;;;6.18;66.92;95668.52;1760777;81;20210;-53
2021/03/15 03:14:42;;;;;;;;;;;;;;;6.13;67.08;95666.24;1757970;80;20224;-53
2021/03/15 03:17:09;;;;;;;;;;;;;;;6.10;67.21;95662.59;1761082;80;22212;-53
2021/03/15 03:19:37;;;;;;;;;;;;;;;6.09;67.12;95668.69;1763675;80;20323;-55
2021/03/15 03:22:05;;;;;;;;;;;;;;;6.05;66.75;95664.20;1762764;80;21148;-52
2021/03/15 03:24:32;;;;;;;;;;;;;;;6.03;66.59;95670.38;1763335;80;20221;-53
2021/03/15 03:27:00;;;;;;;;;;;;;;;5.99;66.66;95673.63;1763537;80;20226;-53
2021/03/15 03:29:27;;;;;;;;;;;;;;;5.97;66.74;95671.63;1763908;80;20218;-52
2021/03/15 03:31:55;;;;;;;;;;;;;;;5.92;66.76;95675.38;1763400;80;21715;-53
2021/03/15 03:34:23;;;;;;;;;;;;;;;5.87;67.03;95667.95;1763074;80;21395;-52
2021/03/15 03:36:51;;;;;;;;;;;;;;;5.83;67.05;95667.81;1758402;80;20299;-52
2021/03/15 03:39:18;;;;;;;;;;;;;;;5.76;67.25;95671.73;1764060;80;20294;-53
2021/03/15 03:41:45;;;;;;;;;;;;;;;5.75;67.33;95671.36;1764082;81;20218;-54
2021/03/15 03:44:13;;;;;;;;;;;;;;;5.76;67.30;95669.97;1759619;80;20218;-53
2021/03/15 03:46:41;;;;;;;;;;;;;;;5.74;67.25;95672.27;1763145;80;21270;-53
2021/03/15 03:49:10;;;;;;;;;;;;;;;5.72;67.28;95665.94;1759054;80;20284;-53
2021/03/15 03:51:41;;;;;;;;;;;;;;;5.74;67.28;95670.55;1760265;80;20242;-52
2021/03/15 03:54:14;;;;;;;;;;;;;;;5.75;67.33;95670.08;1763041;81;20232;-53
2021/03/15 03:56:58;;;;;;;;;;;;;;;5.74;67.26;95669.26;1765415;79;20270;-54
2021/03/15 03:59:27;;;;;;;;;;;;;;;5.74;67.31;95672.27;1761493;80;21212;-53
2021/03/15 04:01:56;;;;;;;;;;;;;;;5.76;67.67;95673.84;1761311;80;20217;-54
2021/03/15 04:04:25;;;;;;;;;;;;;;;5.86;67.69;95670.19;1760326;80;20210;-54
2021/03/15 04:06:53;;;;;;;;;;;;;;;5.98;67.40;95668.58;1763831;80;20215;-54
2021/03/15 04:09:30;;;;;;;;;;;;;;;6.04;66.81;95668.17;1761115;80;20588;-54
2021/03/15 04:11:59;;;;;;;;;;;;;;;6.00;66.61;95667.56;1759101;81;22117;-53
2021/03/15 04:14:31;;;;;;;;;;;;;;;5.97;66.42;95656.62;1741801;81;20213;-54
2021/03/15 04:16:59;;;;;;;;;;;;;;;5.94;66.35;95654.21;1759569;80;20485;-53
2021/03/15 04:19:36;;;;;;;;;;;;;;;5.92;66.26;95649.63;1764385;80;20221;-54
2021/03/15 04:22:09;;;;;;;;;;;;;;;5.89;66.26;95655.83;1757353;80;20215;-53
2021/03/15 04:24:38;;;;;;;;;;;;;;;5.86;66.29;95650.88;1760409;80;23610;-53
2021/03/15 04:27:06;;;;;;;;;;;;;;;5.81;66.26;95656.80;1762613;80;20583;-52
2021/03/15 04:29:33;;;;;;;;;;;;;;;5.72;66.40;95650.50;1739390;81;20497;-53
2021/03/15 04:32:01;;;;;;;;;;;;;;;5.64;66.54;95642.02;1741171;81;21462;-52
2021/03/15 04:34:30;;;;;;;;;;;;;;;5.62;66.59;95654.14;1763213;80;20353;-54
2021/03/15 04:36:57;;;;;;;;;;;;;;;5.59;66.56;95646.64;1762340;80;21282;-53
2021/03/15 04:39:26;;;;;;;;;;;;;;;5.56;66.71;95647.28;1767406;80;20485;-54
2021/03/15 04:41:54;;;;;;;;;;;;;;;5.59;66.95;95653.52;1761994;80;20236;-53
2021/03/15 04:44:21;;;;;;;;;;;;;;;5.65;66.62;95651.84;1762015;80;20792;-53
2021/03/15 04:46:49;;;;;;;;;;;;;;;5.49;66.52;95652.01;1763971;80;20838;-53
2021/03/15 04:49:17;;;;;;;;;;;;;;;5.40;67.17;95658.58;1761752;81;21360;-54
2021/03/15 04:51:45;;;;;;;;;;;;;;;5.43;67.34;95654.53;1761293;80;20246;-55
2021/03/15 04:54:12;;;;;;;;;;;;;;;5.38;67.35;95657.02;1762318;80;20243;-54
2021/03/15 04:56:39;;;;;;;;;;;;;;;5.35;67.21;95649.87;1763235;80;20235;-53
2021/03/15 04:59:08;;;;;;;;;;;;;;;5.31;67.39;95649.73;1763309;80;20241;-54
2021/03/15 05:01:36;;;;;;;;;;;;;;;5.31;67.45;95649.73;1759417;80;22402;-51
2021/03/15 05:04:05;;;;;;;;;;;;;;;5.25;67.21;95646.25;1763065;80;20266;-53
2021/03/15 05:06:32;;;;;;;;;;;;;;;5.19;67.41;95655.64;1763867;80;20221;-54
2021/03/15 05:08:59;;;;;;;;;;;;;;;5.16;67.57;95651.53;1766284;80;20250;-51
2021/03/15 05:11:31;;;;;;;;;;;;;;;5.20;67.58;95652.59;1763267;80;20490;-53
2021/03/15 05:14:01;;;;;;;;;;;;;;;5.22;67.36;95651.59;1760941;80;21201;-52
2021/03/15 05:16:28;;;;;;;;;;;;;;;5.24;67.47;95650.21;1761204;80;20222;-53
2021/03/15 05:18:58;;;;;;;;;;;;;;;5.28;67.52;95652.49;1755335;81;20214;-52
2021/03/15 05:21:25;;;;;;;;;;;;;;;5.31;67.25;95657.44;1763761;80;22211;-53
2021/03/15 05:23:55;;;;;;;;;;;;;;;5.32;67.43;95648.78;1763501;81;20261;-52
2021/03/15 05:26:22;;;;;;;;;;;;;;;5.32;67.28;95653.92;1763289;80;21380;-52
2021/03/15 05:28:51;;;;;;;;;;;;;;;5.33;67.21;95650.91;1763720;80;20214;-53
2021/03/15 05:31:19;;;;;;;;;;;;;;;5.32;67.20;95655.21;1762127;80;20256;-53
2021/03/15 05:33:47;;;;;;;;;;;;;;;5.37;67.18;95645.10;1762413;81;21249;-53
2021/03/15 05:36:15;;;;;;;;;;;;;;;5.43;67.17;95647.28;1759514;80;21558;-53
2021/03/15 05:38:43;;;;;;;;;;;;;;;5.47;67.06;95643.58;1762715;80;22268;-53
2021/03/15 05:41:12;;;;;;;;;;;;;;;5.51;66.93;95648.89;1761337;80;20254;-52
2021/03/15 05:44:05;;;;;;;;;;;;;;;5.56;66.63;95642.98;1763326;80;20245;-52
2021/03/15 05:47:10;;;;;;;;;;;;;;;5.56;66.46;95641.70;1702490;81;20218;-53
2021/03/15 05:50:01;;;;;;;;;;;;;;;5.57;66.32;95643.33;1761068;80;20502;-53
2021/03/15 05:52:55;;;;;;;;;;;;;;;5.59;66.33;95645.80;1758188;80;21336;-53
2021/03/15 05:55:43;;;;;;;;;;;;;;;5.59;66.15;95645.36;1763011;80;20254;-52
2021/03/15 05:58:33;;;;;;;;;;;;;;;5.54;66.13;95652.53;1706750;81;20196;-52
2021/03/15 06:01:33;;;;;;;;;;;;;;;5.52;66.22;95653.09;1764359;80;20271;-54
2021/03/15 06:04:14;;;;;;;;;;;;;;;5.55;66.11;95655.95;1766934;80;20269;-54
2021/03/15 06:06:41;;;;;;;;;;;;;;;5.52;65.81;95653.91;1764171;80;21216;-53
2021/03/15 06:09:09;;;;;;;;;;;;;;;5.46;65.92;95659.92;1744489;81;20468;-53
2021/03/15 06:11:45;;;;;;;;;;;;;;;5.42;65.82;95665.73;1715990;80;20440;-53
2021/03/15 06:14:13;;;;;;;;;;;;;;;5.31;66.00;95665.16;1761774;80;20293;-53
2021/03/15 06:16:41;;;;;;;;;;;;;;;5.23;66.24;95660.97;1765465;80;20501;-53
2021/03/15 06:19:09;;;;;;;;;;;;;;;5.19;66.35;95665.11;1763424;81;21283;-53
2021/03/15 06:21:36;;;;;;;;;;;;;;;5.20;66.42;95667.59;1763766;80;20214;-53
2021/03/15 06:24:04;;;;;;;;;;;;;;;5.22;66.45;95669.59;1763324;80;20214;-53
2021/03/15 06:26:32;;;;;;;;;;;;;;;5.25;66.28;95671.97;1757979;80;20633;-54
2021/03/15 06:29:01;;;;;;;;;;;;;;;5.26;66.30;95668.48;1763201;80;20497;-54
2021/03/15 06:31:29;;;;;;;;;;;;;;;5.30;66.02;95668.64;1756013;80;21592;-53
2021/03/15 06:33:59;;;;;;;;;;;;;;;5.31;65.81;95674.60;1763259;80;20656;-53
2021/03/15 06:36:27;;;;;;;;;;;;;;;5.33;65.62;95677.92;1762902;80;20210;-53
2021/03/15 06:38:57;;;;;;;;;;;;;;;5.32;65.52;95673.69;1764970;80;20911;-53
2021/03/15 06:41:24;;;;;;;;;;;;;;;5.31;65.43;95673.31;1762471;80;21709;-54
2021/03/15 06:43:51;;;;;;;;;;;;;;;5.29;65.14;95673.41;1760649;81;21812;-53
2021/03/15 06:46:21;;;;;;;;;;;;;;;5.29;65.13;95672.59;1763372;80;20404;-52
2021/03/15 06:48:49;;;;;;;;;;;;;;;5.28;65.20;95669.21;1765364;80;20214;-52
2021/03/15 06:51:16;;;;;;;;;;;;;;;5.28;65.14;95668.36;1763170;81;20248;-53
2021/03/15 06:53:44;;;;;;;;;;;;;;;5.28;65.09;95670.50;1764249;80;20235;-53
2021/03/15 06:56:13;;;;;;;;;;;;;;;5.33;64.82;95680.50;1764455;80;21394;-53
2021/03/15 06:58:48;;;;;;;;;;;;;;;5.32;64.71;95671.94;1768352;80;20567;-52
2021/03/15 07:01:21;;;;;;;;;;;;;;;5.27;64.59;95675.27;1770129;80;20265;-52
2021/03/15 07:03:50;;;;;;;;;;;;;;;5.25;64.74;95669.40;1730912;81;20233;-53
2021/03/15 07:06:20;;;;;;;;;;;;;;;5.26;64.89;95672.78;1729780;82;20226;-53
2021/03/15 07:08:47;;;;;;;;;;;;;;;5.25;65.06;95669.40;1756272;80;21365;-53
2021/03/15 07:11:19;;;;;;;;;;;;;;;5.27;65.00;95673.16;1756360;80;20289;-53
2021/03/15 07:13:46;;;;;;;;;;;;;;;5.30;65.03;95676.83;1765562;80;20249;-53
2021/03/15 07:16:28;;;;;;;;;;;;;;;5.37;64.92;95670.83;1762260;80;20301;-53
2021/03/15 07:19:00;;;;;;;;;;;;;;;5.40;64.55;95674.02;1759894;80;20234;-53
2021/03/15 07:21:32;;;;;;;;;;;;;;;5.39;64.71;95671.55;1766493;80;21420;-52
2021/03/15 07:24:00;;;;;;;;;;;;;;;5.44;64.48;95671.59;1763480;80;20229;-53
2021/03/15 07:26:30;;;;;;;;;;;;;;;5.42;64.32;95672.64;1766658;80;20222;-53
2021/03/15 07:28:57;;;;;;;;;;;;;;;5.39;64.33;95675.41;1766609;80;20226;-53
2021/03/15 07:31:30;;;;;;;;;;;;;;;5.40;64.31;95674.49;1765900;80;20221;-53
2021/03/15 07:34:01;;;;;;;;;;;;;;;5.39;64.38;95672.83;1766271;80;21431;-52
2021/03/15 07:36:28;;;;;;;;;;;;;;;5.41;64.51;95674.39;1766244;81;20214;-53
2021/03/15 07:38:57;;;;;;;;;;;;;;;5.46;64.71;95675.36;1766291;80;20494;-53
2021/03/15 07:41:26;;;;;;;;;;;;;;;5.50;64.74;95667.34;1766766;80;20506;-53
2021/03/15 07:43:53;;;;;;;;;;;;;;;5.58;64.62;95672.48;1768017;80;20780;-53
2021/03/15 07:46:27;;;;;;;;;;;;;;;5.63;64.52;95664.80;1765680;80;21253;-55
2021/03/15 07:48:58;;;;;;;;;;;;;;;5.70;64.46;95663.46;1759549;81;20218;-55
2021/03/15 07:51:29;;;;;;;;;;;;;;;5.76;64.17;95663.54;1766609;80;20222;-54
2021/03/15 07:54:09;;;;;;;;;;;;;;;5.82;64.16;95665.72;1769400;80;20241;-54
2021/03/15 07:56:36;;;;;;;;;;;;;;;5.89;63.96;95666.13;1752220;80;20497;-53
2021/03/15 07:59:04;;;;;;;;;;;;;;;5.96;63.70;95662.23;1753522;80;21207;-53
2021/03/15 08:01:31;;;;;;;;;;;;;;;6.02;63.58;95661.84;1766855;80;20289;-53
2021/03/15 08:03:59;;;;;;;;;;;;;;;6.05;63.37;95662.92;1764759;80;20222;-53
2021/03/15 08:06:27;;;;;;;;;;;;;;;6.08;63.41;95658.85;1768932;80;20214;-53
2021/03/15 08:08:55;;;;;;;;;;;;;;;6.08;63.31;95654.14;1764865;80;20225;-53
2021/03/15 08:11:22;;;;;;;;;;;;;;;6.08;63.33;95650.28;1770822;80;23598;-53
2021/03/15 08:13:52;;;;;;;;;;;;;;;6.09;63.19;95651.94;1771451;80;20254;-54
2021/03/15 08:16:21;;;;;;;;;;;;;;;6.11;63.17;95656.52;1736808;82;20226;-54
2021/03/15 08:18:50;;;;;;;;;;;;;;;6.08;63.19;95647.70;1725955;83;20251;-54
2021/03/15 08:21:27;;;;;;;;;;;;;;;6.07;63.31;95652.52;1761228;80;20250;-53
2021/03/15 08:23:57;;;;;;;;;;;;;;;6.05;63.46;95647.47;1757425;80;21843;-54
2021/03/15 08:26:25;;;;;;;;;;;;;;;6.02;63.65;95646.83;1763369;80;20725;-53
2021/03/15 08:28:56;;;;;;;;;;;;;;;5.98;63.92;95646.69;1761265;80;20217;-53
2021/03/15 08:31:47;;;;;;;;;;;;;;;5.97;63.89;95650.17;1763515;80;20305;-53
2021/03/15 08:34:15;;;;;;;;;;;;;;;5.99;63.93;95654.31;1763243;81;20822;-54
2021/03/15 08:36:44;;;;;;;;;;;;;;;6.00;63.89;95644.38;1762578;80;21369;-53
2021/03/15 08:39:35;;;;;;;;;;;;;;;6.01;63.76;95643.44;1763759;80;20285;-54
2021/03/15 08:42:10;;;;;;;;;;;;;;;5.99;63.66;95645.77;1757856;80;20215;-55
2021/03/15 08:44:44;;;;;;;;;;;;;;;5.94;63.78;95634.91;1751448;80;20314;-53
2021/03/15 08:47:12;;;;;;;;;;;;;;;5.91;63.91;95638.52;1762352;80;20294;-53
2021/03/15 08:49:44;;;;;;;;;;;;;;;5.89;63.98;95640.38;1758222;81;20266;-54
2021/03/15 08:52:12;;;;;;;;;;;;;;;5.92;64.19;95638.89;1763130;80;20247;-53
2021/03/15 08:54:43;;;;;;;;;;;;;;;5.99;64.19;95636.76;1763167;81;20238;-53
2021/03/15 08:57:29;;;;;;;;;;;;;;;6.06;64.16;95636.70;1763668;80;20225;-54
2021/03/15 08:59:59;;;;;;;;;;;;;;;6.08;63.88;95634.39;1743393;80;20210;-53
2021/03/15 09:02:34;;;;;;;;;;;;;;;6.07;63.88;95631.91;1762954;80;21213;-53
2021/03/15 09:05:21;;;;;;;;;;;;;;;6.13;63.60;95630.66;1753970;81;20279;-54
2021/03/15 09:07:48;;;;;;;;;;;;;;;6.11;63.49;95626.90;1744198;82;20499;-53
2021/03/15 09:10:31;;;;;;;;;;;;;;;6.13;63.47;95626.33;1745140;81;20254;-54
2021/03/15 09:13:23;;;;;;;;;;;;;;;6.08;63.53;95629.23;1747270;81;20223;-54
2021/03/15 09:15:55;;;;;;;;;;;;;;;6.07;63.43;95625.48;1743144;81;22383;-54
2021/03/15 09:18:43;;;;;;;;;;;;;;;6.08;63.29;95622.80;1767484;80;20301;-53
2021/03/15 09:21:29;;;;;;;;;;;;;;;6.08;63.41;95622.80;1769076;80;20219;-54
2021/03/15 09:23:59;;;;;;;;;;;;;;;6.12;63.28;95624.70;1760488;80;20226;-54
2021/03/15 09:26:31;;;;;;;;;;;;;;;6.08;63.31;95621.52;1763314;80;20194;-54
2021/03/15 09:28:59;;;;;;;;;;;;;;;6.10;63.34;95619.27;1772569;80;21207;-54
2021/03/15 09:31:28;;;;;;;;;;;;;;;6.11;63.35;95618.36;1764449;81;20239;-53
2021/03/15 09:33:59;;;;;;;;;;;;;;;6.12;63.24;95615.68;1770135;80;20222;-54
2021/03/15 09:36:27;;;;;;;;;;;;;;;6.13;63.26;95621.17;1771564;80;20211;-53
2021/03/15 09:38:55;;;;;;;;;;;;;;;6.16;63.17;95617.58;1772342;80;20210;-54
2021/03/15 09:41:24;;;;;;;;;;;;;;;6.12;63.28;95616.97;1771107;81;21382;-53
2021/03/15 09:43:53;;;;;;;;;;;;;;;6.12;63.48;95613.55;1771862;80;20591;-53
2021/03/15 09:46:25;;;;;;;;;;;;;;;6.13;63.43;95611.34;1725487;83;20319;-54
2021/03/15 09:48:53;;;;;;;;;;;;;;;6.16;63.31;95611.14;1772679;80;20235;-54
2021/03/15 09:51:26;;;;;;;;;;;;;;;6.15;63.26;95609.48;1769538;80;20265;-54
2021/03/15 09:53:55;;;;;;;;;;;;;;;6.12;63.62;95611.82;1768761;80;21245;-54
2021/03/15 09:56:25;;;;;;;;;;;;;;;6.10;63.85;95612.84;1771695;79;20226;-53
2021/03/15 09:58:59;;;;;;;;;;;;;;;6.10;63.88;95608.50;1746943;81;20239;-54
2021/03/15 10:01:28;;;;;;;;;;;;;;;6.16;63.75;95615.81;1755663;81;22209;-54
2021/03/15 10:04:14;;;;;;;;;;;;;;;6.18;63.43;95614.42;1772660;80;20243;-53
2021/03/15 10:06:56;;;;;;;;;;;;;;;6.19;63.36;95611.75;1735390;81;21384;-53
2021/03/15 10:09:43;;;;;;;;;;;;;;;6.18;63.26;95610.09;1772171;80;20490;-54
2021/03/15 10:12:29;;;;;;;;;;;;;;;6.15;63.19;95608.19;1726856;83;20281;-54
2021/03/15 10:15:17;;;;;;;;;;;;;;;6.12;63.19;95606.67;1771883;80;20226;-52
2021/03/15 10:17:52;;;;;;;;;;;;;;;6.10;63.22;95601.25;1765940;80;20320;-53
2021/03/15 10:20:30;;;;;;;;;;;;;;;6.02;63.27;95604.34;1723630;82;21766;-53
2021/03/15 10:23:09;;;;;;;;;;;;;;;6.02;63.50;95609.48;1772709;80;20653;-55
2021/03/15 10:25:38;;;;;;;;;;;;;;;6.04;63.65;95605.08;1753253;81;20235;-54
2021/03/15 10:28:06;;;;;;;;;;;;;;;6.06;63.39;95604.50;1771869;80;20218;-53
2021/03/15 10:30:36;;;;;;;;;;;;;;;6.02;63.53;95601.32;1762047;80;20510;-54
2021/03/15 10:33:04;;;;;;;;;;;;;;;6.04;63.43;95602.50;1753276;81;21220;-54
2021/03/15 10:35:35;;;;;;;;;;;;;;;6.04;63.39;95604.61;1771617;81;21785;-53
2021/03/15 10:38:20;;;;;;;;;;;;;;;6.08;63.39;95599.62;1725852;82;20234;-53
2021/03/15 10:40:51;;;;;;;;;;;;;;;6.13;63.19;95597.99;1771613;79;20218;-54
2021/03/15 10:43:22;;;;;;;;;;;;;;;6.13;62.87;95591.55;1771659;80;20298;-54
2021/03/15 10:45:50;;;;;;;;;;;;;;;6.06;63.04;95592.91;1708869;83;21370;-53
2021/03/15 10:48:17;;;;;;;;;;;;;;;6.01;63.36;95579.06;1726087;83;20288;-54
2021/03/15 10:50:47;;;;;;;;;;;;;;;6.06;63.43;95582.61;1771505;80;20235;-54
2021/03/15 10:53:22;;;;;;;;;;;;;;;6.12;63.38;95582.64;1771465;80;20478;-55
2021/03/15 10:55:50;;;;;;;;;;;;;;;6.07;63.45;95573.97;1772185;79;20234;-54
2021/03/15 10:58:21;;;;;;;;;;;;;;;6.14;63.85;95569.22;1770123;80;22797;-53
2021/03/15 11:01:01;;;;;;;;;;;;;;;6.21;63.95;95569.95;1770804;80;22005;-55
2021/03/15 11:03:32;;;;;;;;;;;;;;;6.33;63.67;95568.75;1767740;80;20282;-54
2021/03/15 11:06:05;;;;;;;;;;;;;;;6.39;63.27;95556.25;1765613;80;20309;-54
2021/03/15 11:08:34;;;;;;;;;;;;;;;6.44;63.01;95560.61;1769880;81;20226;-53
2021/03/15 11:11:17;;;;;;;;;;;;;;;6.49;63.08;95556.43;1771013;80;21211;-55
2021/03/15 11:13:50;;;;;;;;;;;;;;;6.50;63.13;95547.78;1770920;80;20246;-53
2021/03/15 11:16:21;;;;;;;;;;;;;;;6.47;63.11;95551.86;1770367;80;20460;-53
2021/03/15 11:18:52;;;;;;;;;;;;;;;6.45;63.01;95547.28;1770293;81;20242;-54
2021/03/15 11:21:19;;;;;;;;;;;;;;;6.42;63.05;95545.73;1760084;81;20283;-54
2021/03/15 11:23:52;;;;;;;;;;;;;;;6.43;63.22;95542.69;1770513;80;21379;-53
2021/03/15 11:26:21;;;;;;;;;;;;;;;6.39;63.08;95539.51;1768548;80;20277;-54
2021/03/15 11:28:54;;;;;;;;;;;;;;;6.34;63.16;95539.02;1770863;80;20225;-54
2021/03/15 11:31:28;;;;;;;;;;;;;;;6.20;62.69;95538.70;1771051;81;20227;-54
2021/03/15 11:33:59;;;;;;;;;;;;;;;5.95;63.89;95533.56;1771366;81;20214;-54
2021/03/15 11:36:39;;;;;;;;;;;;;;;5.95;64.69;95538.24;1735006;82;21382;-53
2021/03/15 11:39:08;;;;;;;;;;;;;;;6.00;64.75;95536.23;1684818;84;20236;-53
2021/03/15 11:41:39;;;;;;;;;;;;;;;6.04;64.68;95528.64;1736537;82;20521;-54
2021/03/15 11:44:06;;;;;;;;;;;;;;;6.09;64.44;95527.03;1729455;82;20931;-53
2021/03/15 11:46:34;;;;;;;;;;;;;;;6.13;64.54;95527.16;1730906;83;20222;-54
2021/03/15 11:49:02;;;;;;;;;;;;;;;6.17;64.18;95523.94;1730546;82;21390;-53
2021/03/15 11:51:41;;;;;;;;;;;;;;;6.19;63.95;95517.73;1720123;82;20297;-53
2021/03/15 11:54:15;;;;;;;;;;;;;;;6.23;63.94;95507.58;1769326;81;20236;-53
2021/03/15 11:56:43;;;;;;;;;;;;;;;6.22;63.96;95508.50;1770338;79;20238;-53
2021/03/15 11:59:11;;;;;;;;;;;;;;;6.25;64.02;95504.91;1769865;80;20257;-52
2021/03/15 12:01:41;;;;;;;;;;;;;;;6.26;63.46;95502.66;1770993;80;22410;-53
2021/03/15 12:04:09;;;;;;;;;;;;;;;6.23;63.58;95502.88;1761126;80;20497;-54
2021/03/15 12:06:39;;;;;;;;;;;;;;;6.20;63.59;95506.51;1767942;81;20223;-53
2021/03/15 12:09:14;;;;;;;;;;;;;;;6.16;63.60;95505.53;1771518;80;20223;-53
2021/03/15 12:11:45;;;;;;;;;;;;;;;6.13;63.67;95499.31;1772012;80;20278;-53
2021/03/15 12:14:16;;;;;;;;;;;;;;;6.08;63.92;95491.91;1770139;80;20282;-53
2021/03/15 12:16:46;;;;;;;;;;;;;;;6.06;63.94;95495.05;1772462;80;20498;-53
2021/03/15 12:19:14;;;;;;;;;;;;;;;6.04;64.02;95494.34;1771046;81;20244;-53
2021/03/15 12:21:45;;;;;;;;;;;;;;;6.03;64.08;95494.80;1772175;80;20246;-54
2021/03/15 12:24:16;;;;;;;;;;;;;;;6.02;64.26;95492.32;1771763;80;20270;-53
2021/03/15 12:26:46;;;;;;;;;;;;;;;5.96;64.29;95496.16;1771569;80;22125;-53
2021/03/15 12:29:16;;;;;;;;;;;;;;;5.88;64.35;95490.69;1772042;80;20565;-53
2021/03/15 12:31:45;;;;;;;;;;;;;;;5.84;64.52;95487.52;1772626;80;20219;-53
2021/03/15 12:34:14;;;;;;;;;;;;;;;5.80;64.77;95477.53;1771731;81;20223;-53
2021/03/15 12:36:43;;;;;;;;;;;;;;;5.78;65.11;95484.54;1771760;80;20242;-53
2021/03/15 12:39:11;;;;;;;;;;;;;;;5.83;65.26;95485.85;1772862;81;21148;-53
2021/03/15 12:41:41;;;;;;;;;;;;;;;5.92;65.30;95480.55;1770715;80;20456;-54
2021/03/15 12:44:10;;;;;;;;;;;;;;;6.00;65.27;95477.45;1771041;80;20247;-53
2021/03/15 12:46:39;;;;;;;;;;;;;;;6.09;65.18;95478.11;1746469;81;20214;-54
2021/03/15 12:49:19;;;;;;;;;;;;;;;6.14;64.84;95474.73;1769999;80;20278;-54
2021/03/15 12:51:48;;;;;;;;;;;;;;;6.16;64.35;95478.02;1771931;80;21366;-54
2021/03/15 12:54:15;;;;;;;;;;;;;;;6.15;64.23;95477.68;1772593;80;20560;-53
2021/03/15 12:56:45;;;;;;;;;;;;;;;6.17;64.09;95478.86;1768252;79;20243;-53
2021/03/15 12:59:13;;;;;;;;;;;;;;;6.10;64.11;95472.48;1771306;80;20316;-54
2021/03/15 13:01:43;;;;;;;;;;;;;;;6.06;64.30;95475.74;1763974;80;20219;-54
2021/03/15 13:04:11;;;;;;;;;;;;;;;6.02;64.30;95469.98;1771207;81;21210;-52
2021/03/15 13:06:43;;;;;;;;;;;;;;;6.00;64.30;95470.57;1772139;81;20487;-53
2021/03/15 13:09:21;;;;;;;;;;;;;;;6.00;64.25;95475.72;1771291;80;20219;-53
2021/03/15 13:12:00;;;;;;;;;;;;;;;5.98;64.29;95476.75;1753718;80;20265;-53
2021/03/15 13:14:44;;;;;;;;;;;;;;;5.96;64.49;95475.56;1766908;80;20222;-54
2021/03/15 13:17:33;;;;;;;;;;;;;;;5.96;64.44;95480.71;1749839;81;21443;-53
2021/03/15 13:20:04;;;;;;;;;;;;;;;5.92;64.44;95475.84;1770689;80;20218;-54